sensor_id;sensor_type;location;lat;lon;timestamp;temperature;humidity
9564;DHT22;4820;50.870;4.702;2023-12-20T00:01:38;7.40;99.90
9564;DHT22;4820;50.870;4.702;2023-12-20T00:04:04;7.40;99.90
9564;DHT22;4820;50.870;4.702;2023-12-20T00:06:30;7.30;99.90
9564;DHT22;4820;50.870;4.702;2023-12-20T00:08:56;7.30;99.90
9564;DHT22;4820;50.870;4.702;2023-12-20T00:11:23;7.30;99.90
9564;DHT22;4820;50.870;4.702;2023-12-20T00:13:49;7.30;99.90
9564;DHT22;4820;50.870;4.702;2023-12-20T00:16:15;7.30;99.90
9564;DHT22;4820;50.870;4.702;2023-12-20T00:18:41;7.30;99.90
9564;DHT22;4820;50.870;4.702;2023-12-20T00:21:06;7.20;99.90
9564;DHT22;4820;50.870;4.702;2023-12-20T00:23:32;7.30;99.90
9564;DHT22;4820;50.870;4.702;2023-12-20T00:25:58;7.20;99.90
9564;DHT22;4820;50.870;4.702;2023-12-20T00:28:25;7.20;99.90
9564;DHT22;4820;50.870;4.702;2023-12-20T00:30:51;7.20;99.90
9564;DHT22;4820;50.870;4.702;2023-12-20T00:33:17;7.20;99.90
9564;DHT22;4820;50.870;4.702;2023-12-20T00:35:43;7.30;99.90
9564;DHT22;4820;50.870;4.702;2023-12-20T00:38:09;7.30;99.90
9564;DHT22;4820;50.870;4.702;2023-12-20T00:40:35;7.20;99.90
9564;DHT22;4820;50.870;4.702;2023-12-20T00:43:01;7.20;99.90
9564;DHT22;4820;50.870;4.702;2023-12-20T00:45:26;7.10;99.90
9564;DHT22;4820;50.870;4.702;2023-12-20T00:47:52;7.10;99.90
9564;DHT22;4820;50.870;4.702;2023-12-20T00:50:18;7.10;99.90
9564;DHT22;4820;50.870;4.702;2023-12-20T00:52:44;7.00;99.90
9564;DHT22;4820;50.870;4.702;2023-12-20T00:55:09;7.00;99.90
9564;DHT22;4820;50.870;4.702;2023-12-20T00:57:35;7.00;99.90
9564;DHT22;4820;50.870;4.702;2023-12-20T01:00:01;7.00;99.90
9564;DHT22;4820;50.870;4.702;2023-12-20T01:02:26;6.90;99.90
9564;DHT22;4820;50.870;4.702;2023-12-20T01:04:52;6.90;99.90
9564;DHT22;4820;50.870;4.702;2023-12-20T01:07:18;6.90;99.90
9564;DHT22;4820;50.870;4.702;2023-12-20T01:09:44;6.90;99.90
9564;DHT22;4820;50.870;4.702;2023-12-20T01:12:10;6.90;99.90
9564;DHT22;4820;50.870;4.702;2023-12-20T01:14:35;6.90;99.90
9564;DHT22;4820;50.870;4.702;2023-12-20T01:17:01;6.90;99.90
9564;DHT22;4820;50.870;4.702;2023-12-20T01:19:28;7.00;99.90
9564;DHT22;4820;50.870;4.702;2023-12-20T01:21:55;6.90;99.90
9564;DHT22;4820;50.870;4.702;2023-12-20T01:24:21;6.90;99.90
9564;DHT22;4820;50.870;4.702;2023-12-20T01:26:47;6.90;99.90
9564;DHT22;4820;50.870;4.702;2023-12-20T01:29:12;6.90;99.90
9564;DHT22;4820;50.870;4.702;2023-12-20T01:31:40;6.80;99.90
9564;DHT22;4820;50.870;4.702;2023-12-20T01:34:06;6.80;99.90
9564;DHT22;4820;50.870;4.702;2023-12-20T01:36:33;6.80;99.90
9564;DHT22;4820;50.870;4.702;2023-12-20T01:38:59;6.80;99.90
9564;DHT22;4820;50.870;4.702;2023-12-20T01:41:24;6.80;99.90
9564;DHT22;4820;50.870;4.702;2023-12-20T01:43:50;6.70;99.90
9564;DHT22;4820;50.870;4.702;2023-12-20T01:46:19;6.70;99.90
9564;DHT22;4820;50.870;4.702;2023-12-20T01:48:45;6.70;99.90
9564;DHT22;4820;50.870;4.702;2023-12-20T01:51:11;6.70;99.90
9564;DHT22;4820;50.870;4.702;2023-12-20T01:53:38;6.70;99.90
9564;DHT22;4820;50.870;4.702;2023-12-20T01:56:05;6.60;99.90
9564;DHT22;4820;50.870;4.702;2023-12-20T01:58:31;6.60;99.90
9564;DHT22;4820;50.870;4.702;2023-12-20T02:00:57;6.50;99.90
9564;DHT22;4820;50.870;4.702;2023-12-20T02:03:23;6.50;99.90
9564;DHT22;4820;50.870;4.702;2023-12-20T02:05:50;6.50;99.90
9564;DHT22;4820;50.870;4.702;2023-12-20T02:08:16;6.50;99.90
9564;DHT22;4820;50.870;4.702;2023-12-20T02:10:42;6.40;99.90
9564;DHT22;4820;50.870;4.702;2023-12-20T02:13:07;6.40;99.90
9564;DHT22;4820;50.870;4.702;2023-12-20T02:15:33;6.40;99.90
9564;DHT22;4820;50.870;4.702;2023-12-20T02:17:59;6.40;99.90
9564;DHT22;4820;50.870;4.702;2023-12-20T02:20:25;6.40;99.90
9564;DHT22;4820;50.870;4.702;2023-12-20T02:22:50;6.40;99.90
9564;DHT22;4820;50.870;4.702;2023-12-20T02:25:16;6.40;99.90
9564;DHT22;4820;50.870;4.702;2023-12-20T02:27:42;6.30;99.90
9564;DHT22;4820;50.870;4.702;2023-12-20T02:30:09;6.30;99.90
9564;DHT22;4820;50.870;4.702;2023-12-20T02:32:35;6.30;99.90
9564;DHT22;4820;50.870;4.702;2023-12-20T02:35:01;6.30;99.90
9564;DHT22;4820;50.870;4.702;2023-12-20T02:37:26;6.30;99.90
9564;DHT22;4820;50.870;4.702;2023-12-20T02:39:52;6.30;99.90
9564;DHT22;4820;50.870;4.702;2023-12-20T02:42:18;6.30;99.90
9564;DHT22;4820;50.870;4.702;2023-12-20T02:44:44;6.30;99.90
9564;DHT22;4820;50.870;4.702;2023-12-20T02:47:09;6.40;99.90
9564;DHT22;4820;50.870;4.702;2023-12-20T02:49:35;6.40;99.90
9564;DHT22;4820;50.870;4.702;2023-12-20T02:52:02;6.50;99.90
9564;DHT22;4820;50.870;4.702;2023-12-20T02:54:28;6.50;99.90
9564;DHT22;4820;50.870;4.702;2023-12-20T02:56:54;6.60;99.90
9564;DHT22;4820;50.870;4.702;2023-12-20T02:59:19;6.60;99.90
9564;DHT22;4820;50.870;4.702;2023-12-20T03:01:45;6.60;99.90
9564;DHT22;4820;50.870;4.702;2023-12-20T03:04:12;6.60;99.90
9564;DHT22;4820;50.870;4.702;2023-12-20T03:06:38;6.60;99.90
9564;DHT22;4820;50.870;4.702;2023-12-20T03:09:04;6.60;99.90
9564;DHT22;4820;50.870;4.702;2023-12-20T03:11:30;6.60;99.90
9564;DHT22;4820;50.870;4.702;2023-12-20T03:13:56;6.50;99.90
9564;DHT22;4820;50.870;4.702;2023-12-20T03:16:22;6.50;99.90
9564;DHT22;4820;50.870;4.702;2023-12-20T03:18:48;6.50;99.90
9564;DHT22;4820;50.870;4.702;2023-12-20T03:21:14;6.50;99.90
9564;DHT22;4820;50.870;4.702;2023-12-20T03:23:40;6.50;99.90
9564;DHT22;4820;50.870;4.702;2023-12-20T03:26:09;6.50;99.90
9564;DHT22;4820;50.870;4.702;2023-12-20T03:28:36;6.40;99.90
9564;DHT22;4820;50.870;4.702;2023-12-20T03:31:02;6.40;99.90
9564;DHT22;4820;50.870;4.702;2023-12-20T03:33:28;6.40;99.90
9564;DHT22;4820;50.870;4.702;2023-12-20T03:35:56;6.40;99.90
9564;DHT22;4820;50.870;4.702;2023-12-20T03:38:22;6.40;99.90
9564;DHT22;4820;50.870;4.702;2023-12-20T03:40:49;6.50;99.90
9564;DHT22;4820;50.870;4.702;2023-12-20T03:43:15;6.50;99.90
9564;DHT22;4820;50.870;4.702;2023-12-20T03:45:42;6.50;99.90
9564;DHT22;4820;50.870;4.702;2023-12-20T03:48:08;6.50;99.90
9564;DHT22;4820;50.870;4.702;2023-12-20T03:50:34;6.50;99.90
9564;DHT22;4820;50.870;4.702;2023-12-20T03:53:00;6.50;99.90
9564;DHT22;4820;50.870;4.702;2023-12-20T03:55:26;6.40;99.90
9564;DHT22;4820;50.870;4.702;2023-12-20T03:57:52;6.40;99.90
9564;DHT22;4820;50.870;4.702;2023-12-20T04:00:18;6.40;99.90
9564;DHT22;4820;50.870;4.702;2023-12-20T04:02:43;6.40;99.90
9564;DHT22;4820;50.870;4.702;2023-12-20T04:05:09;6.40;99.90
9564;DHT22;4820;50.870;4.702;2023-12-20T04:07:36;6.50;99.90
9564;DHT22;4820;50.870;4.702;2023-12-20T04:10:02;6.50;99.90
9564;DHT22;4820;50.870;4.702;2023-12-20T04:12:29;6.50;99.90
9564;DHT22;4820;50.870;4.702;2023-12-20T04:14:56;6.40;99.90
9564;DHT22;4820;50.870;4.702;2023-12-20T04:17:21;6.50;99.90
9564;DHT22;4820;50.870;4.702;2023-12-20T04:19:50;6.50;99.90
9564;DHT22;4820;50.870;4.702;2023-12-20T04:22:19;6.50;99.90
9564;DHT22;4820;50.870;4.702;2023-12-20T04:24:45;6.50;99.90
9564;DHT22;4820;50.870;4.702;2023-12-20T04:27:13;6.40;99.90
9564;DHT22;4820;50.870;4.702;2023-12-20T04:29:39;6.40;99.90
9564;DHT22;4820;50.870;4.702;2023-12-20T04:32:05;6.40;99.90
9564;DHT22;4820;50.870;4.702;2023-12-20T04:34:30;6.40;99.90
9564;DHT22;4820;50.870;4.702;2023-12-20T04:36:56;6.40;99.90
9564;DHT22;4820;50.870;4.702;2023-12-20T04:39:22;6.40;99.90
9564;DHT22;4820;50.870;4.702;2023-12-20T04:41:48;6.40;99.90
9564;DHT22;4820;50.870;4.702;2023-12-20T04:44:14;6.40;99.90
9564;DHT22;4820;50.870;4.702;2023-12-20T04:46:39;6.40;99.90
9564;DHT22;4820;50.870;4.702;2023-12-20T04:49:05;6.40;99.90
9564;DHT22;4820;50.870;4.702;2023-12-20T04:51:34;6.50;99.90
9564;DHT22;4820;50.870;4.702;2023-12-20T04:54:01;6.40;99.90
9564;DHT22;4820;50.870;4.702;2023-12-20T04:56:27;6.50;99.90
9564;DHT22;4820;50.870;4.702;2023-12-20T04:58:53;6.50;99.90
9564;DHT22;4820;50.870;4.702;2023-12-20T05:01:18;6.40;99.90
9564;DHT22;4820;50.870;4.702;2023-12-20T05:03:45;6.40;99.90
9564;DHT22;4820;50.870;4.702;2023-12-20T05:06:11;6.40;99.90
9564;DHT22;4820;50.870;4.702;2023-12-20T05:08:37;6.40;99.90
9564;DHT22;4820;50.870;4.702;2023-12-20T05:11:03;6.40;99.90
9564;DHT22;4820;50.870;4.702;2023-12-20T05:13:29;6.30;99.90
9564;DHT22;4820;50.870;4.702;2023-12-20T05:15:55;6.30;99.90
9564;DHT22;4820;50.870;4.702;2023-12-20T05:18:21;6.30;99.90
9564;DHT22;4820;50.870;4.702;2023-12-20T05:20:47;6.30;99.90
9564;DHT22;4820;50.870;4.702;2023-12-20T05:23:13;6.20;99.90
9564;DHT22;4820;50.870;4.702;2023-12-20T05:25:39;6.20;99.90
9564;DHT22;4820;50.870;4.702;2023-12-20T05:28:06;6.20;99.90
9564;DHT22;4820;50.870;4.702;2023-12-20T05:30:34;6.20;99.90
9564;DHT22;4820;50.870;4.702;2023-12-20T05:32:59;6.20;99.90
9564;DHT22;4820;50.870;4.702;2023-12-20T05:35:25;6.20;99.90
9564;DHT22;4820;50.870;4.702;2023-12-20T05:37:52;6.20;99.90
9564;DHT22;4820;50.870;4.702;2023-12-20T05:40:18;6.20;99.90
9564;DHT22;4820;50.870;4.702;2023-12-20T05:42:43;6.20;99.90
9564;DHT22;4820;50.870;4.702;2023-12-20T05:45:09;6.20;99.90
9564;DHT22;4820;50.870;4.702;2023-12-20T05:47:35;6.20;99.90
9564;DHT22;4820;50.870;4.702;2023-12-20T05:50:02;6.20;99.90
9564;DHT22;4820;50.870;4.702;2023-12-20T05:52:28;6.20;99.90
9564;DHT22;4820;50.870;4.702;2023-12-20T05:54:54;6.20;99.90
9564;DHT22;4820;50.870;4.702;2023-12-20T05:57:21;6.20;99.90
9564;DHT22;4820;50.870;4.702;2023-12-20T05:59:47;6.20;99.90
9564;DHT22;4820;50.870;4.702;2023-12-20T06:02:12;6.20;99.90
9564;DHT22;4820;50.870;4.702;2023-12-20T06:04:42;6.20;99.90
9564;DHT22;4820;50.870;4.702;2023-12-20T06:07:08;6.20;99.90
9564;DHT22;4820;50.870;4.702;2023-12-20T06:09:34;6.20;99.90
9564;DHT22;4820;50.870;4.702;2023-12-20T06:11:59;6.20;99.90
9564;DHT22;4820;50.870;4.702;2023-12-20T06:14:25;6.20;99.90
9564;DHT22;4820;50.870;4.702;2023-12-20T06:16:51;6.20;99.90
9564;DHT22;4820;50.870;4.702;2023-12-20T06:19:17;6.20;99.90
9564;DHT22;4820;50.870;4.702;2023-12-20T06:21:42;6.20;99.90
9564;DHT22;4820;50.870;4.702;2023-12-20T06:24:08;6.20;99.90
9564;DHT22;4820;50.870;4.702;2023-12-20T06:26:35;6.20;99.90
9564;DHT22;4820;50.870;4.702;2023-12-20T06:29:00;6.20;99.90
9564;DHT22;4820;50.870;4.702;2023-12-20T06:31:26;6.30;99.90
9564;DHT22;4820;50.870;4.702;2023-12-20T06:33:52;6.30;99.90
9564;DHT22;4820;50.870;4.702;2023-12-20T06:36:24;6.30;99.90
9564;DHT22;4820;50.870;4.702;2023-12-20T06:38:52;6.30;99.90
9564;DHT22;4820;50.870;4.702;2023-12-20T06:41:18;6.30;99.90
9564;DHT22;4820;50.870;4.702;2023-12-20T06:43:44;6.30;99.90
9564;DHT22;4820;50.870;4.702;2023-12-20T06:46:10;6.30;99.90
9564;DHT22;4820;50.870;4.702;2023-12-20T06:48:36;6.30;99.90
9564;DHT22;4820;50.870;4.702;2023-12-20T06:51:02;6.30;99.90
9564;DHT22;4820;50.870;4.702;2023-12-20T06:53:28;6.20;99.90
9564;DHT22;4820;50.870;4.702;2023-12-20T06:55:54;6.20;99.90
9564;DHT22;4820;50.870;4.702;2023-12-20T06:58:22;6.10;99.90
9564;DHT22;4820;50.870;4.702;2023-12-20T07:00:48;6.10;99.90
9564;DHT22;4820;50.870;4.702;2023-12-20T07:03:13;6.10;99.90
9564;DHT22;4820;50.870;4.702;2023-12-20T07:05:39;6.20;99.90
9564;DHT22;4820;50.870;4.702;2023-12-20T07:08:06;6.10;99.90
9564;DHT22;4820;50.870;4.702;2023-12-20T07:10:32;6.10;99.90
9564;DHT22;4820;50.870;4.702;2023-12-20T07:12:58;6.10;99.90
9564;DHT22;4820;50.870;4.702;2023-12-20T07:15:23;6.10;99.90
9564;DHT22;4820;50.870;4.702;2023-12-20T07:17:49;6.10;99.90
9564;DHT22;4820;50.870;4.702;2023-12-20T07:20:15;6.10;99.90
9564;DHT22;4820;50.870;4.702;2023-12-20T07:22:41;6.10;99.90
9564;DHT22;4820;50.870;4.702;2023-12-20T07:25:10;6.00;99.90
9564;DHT22;4820;50.870;4.702;2023-12-20T07:27:37;6.10;99.90
9564;DHT22;4820;50.870;4.702;2023-12-20T07:30:03;6.10;99.90
9564;DHT22;4820;50.870;4.702;2023-12-20T07:32:29;6.10;99.90
9564;DHT22;4820;50.870;4.702;2023-12-20T07:34:55;6.10;99.90
9564;DHT22;4820;50.870;4.702;2023-12-20T07:37:21;6.10;99.90
9564;DHT22;4820;50.870;4.702;2023-12-20T07:39:47;6.10;99.90
9564;DHT22;4820;50.870;4.702;2023-12-20T07:42:12;6.10;99.90
9564;DHT22;4820;50.870;4.702;2023-12-20T07:44:39;6.00;99.90
9564;DHT22;4820;50.870;4.702;2023-12-20T07:47:05;6.00;99.90
9564;DHT22;4820;50.870;4.702;2023-12-20T07:49:31;6.00;99.90
9564;DHT22;4820;50.870;4.702;2023-12-20T07:51:57;6.00;99.90
9564;DHT22;4820;50.870;4.702;2023-12-20T07:54:23;6.00;99.90
9564;DHT22;4820;50.870;4.702;2023-12-20T07:56:49;6.00;99.90
9564;DHT22;4820;50.870;4.702;2023-12-20T07:59:15;6.00;99.90
9564;DHT22;4820;50.870;4.702;2023-12-20T08:01:40;6.10;99.90
9564;DHT22;4820;50.870;4.702;2023-12-20T08:04:06;6.10;99.90
9564;DHT22;4820;50.870;4.702;2023-12-20T08:06:32;6.10;99.90
9564;DHT22;4820;50.870;4.702;2023-12-20T08:08:57;6.10;99.90
9564;DHT22;4820;50.870;4.702;2023-12-20T08:11:23;6.00;99.90
9564;DHT22;4820;50.870;4.702;2023-12-20T08:13:49;6.00;99.90
9564;DHT22;4820;50.870;4.702;2023-12-20T08:16:15;6.00;99.90
9564;DHT22;4820;50.870;4.702;2023-12-20T08:18:43;6.00;99.90
9564;DHT22;4820;50.870;4.702;2023-12-20T08:21:08;6.00;99.90
9564;DHT22;4820;50.870;4.702;2023-12-20T08:23:34;6.10;99.90
9564;DHT22;4820;50.870;4.702;2023-12-20T08:26:05;6.10;99.90
9564;DHT22;4820;50.870;4.702;2023-12-20T08:28:33;6.10;99.90
9564;DHT22;4820;50.870;4.702;2023-12-20T08:31:00;6.10;99.90
9564;DHT22;4820;50.870;4.702;2023-12-20T08:33:25;6.10;99.90
9564;DHT22;4820;50.870;4.702;2023-12-20T08:35:52;6.10;99.90
9564;DHT22;4820;50.870;4.702;2023-12-20T08:38:18;6.10;99.90
9564;DHT22;4820;50.870;4.702;2023-12-20T08:40:44;6.20;99.90
9564;DHT22;4820;50.870;4.702;2023-12-20T08:43:10;6.20;99.90
9564;DHT22;4820;50.870;4.702;2023-12-20T08:45:36;6.40;99.90
9564;DHT22;4820;50.870;4.702;2023-12-20T08:48:02;6.50;99.90
9564;DHT22;4820;50.870;4.702;2023-12-20T08:50:32;6.50;99.90
9564;DHT22;4820;50.870;4.702;2023-12-20T08:52:57;6.60;99.90
9564;DHT22;4820;50.870;4.702;2023-12-20T08:55:23;6.60;99.90
9564;DHT22;4820;50.870;4.702;2023-12-20T08:57:49;6.60;99.90
9564;DHT22;4820;50.870;4.702;2023-12-20T09:00:17;6.60;99.90
9564;DHT22;4820;50.870;4.702;2023-12-20T09:02:44;6.70;99.90
9564;DHT22;4820;50.870;4.702;2023-12-20T09:05:09;6.70;99.90
9564;DHT22;4820;50.870;4.702;2023-12-20T09:07:35;6.70;99.90
9564;DHT22;4820;50.870;4.702;2023-12-20T09:10:01;6.70;99.90
9564;DHT22;4820;50.870;4.702;2023-12-20T09:12:26;6.60;99.90
9564;DHT22;4820;50.870;4.702;2023-12-20T09:14:53;6.60;99.90
9564;DHT22;4820;50.870;4.702;2023-12-20T09:17:19;6.60;99.90
9564;DHT22;4820;50.870;4.702;2023-12-20T09:19:47;6.60;99.90
9564;DHT22;4820;50.870;4.702;2023-12-20T09:22:12;6.60;99.90
9564;DHT22;4820;50.870;4.702;2023-12-20T09:24:38;6.60;99.90
9564;DHT22;4820;50.870;4.702;2023-12-20T09:27:05;6.60;99.90
9564;DHT22;4820;50.870;4.702;2023-12-20T09:29:31;6.60;99.90
9564;DHT22;4820;50.870;4.702;2023-12-20T09:31:57;6.60;99.90
9564;DHT22;4820;50.870;4.702;2023-12-20T09:34:23;6.70;99.90
9564;DHT22;4820;50.870;4.702;2023-12-20T09:36:49;6.70;99.90
9564;DHT22;4820;50.870;4.702;2023-12-20T09:39:17;6.70;99.90
9564;DHT22;4820;50.870;4.702;2023-12-20T09:42:00;6.80;99.90
9564;DHT22;4820;50.870;4.702;2023-12-20T09:44:27;6.80;99.90
9564;DHT22;4820;50.870;4.702;2023-12-20T09:46:55;6.80;99.90
9564;DHT22;4820;50.870;4.702;2023-12-20T09:49:21;6.90;99.90
9564;DHT22;4820;50.870;4.702;2023-12-20T09:51:48;7.00;99.90
9564;DHT22;4820;50.870;4.702;2023-12-20T09:54:21;7.00;99.90
9564;DHT22;4820;50.870;4.702;2023-12-20T09:56:46;7.00;99.90
9564;DHT22;4820;50.870;4.702;2023-12-20T09:59:13;7.10;99.90
9564;DHT22;4820;50.870;4.702;2023-12-20T10:01:41;7.10;99.90
9564;DHT22;4820;50.870;4.702;2023-12-20T10:04:09;7.20;99.90
9564;DHT22;4820;50.870;4.702;2023-12-20T10:06:41;7.20;99.90
9564;DHT22;4820;50.870;4.702;2023-12-20T10:09:08;7.20;99.90
9564;DHT22;4820;50.870;4.702;2023-12-20T10:11:38;7.30;99.90
9564;DHT22;4820;50.870;4.702;2023-12-20T10:14:04;7.30;99.90
9564;DHT22;4820;50.870;4.702;2023-12-20T10:16:31;7.30;99.90
9564;DHT22;4820;50.870;4.702;2023-12-20T10:18:58;7.40;99.90
9564;DHT22;4820;50.870;4.702;2023-12-20T10:21:24;7.40;99.90
9564;DHT22;4820;50.870;4.702;2023-12-20T10:23:52;7.40;99.90
9564;DHT22;4820;50.870;4.702;2023-12-20T10:26:23;7.50;99.90
9564;DHT22;4820;50.870;4.702;2023-12-20T10:28:59;7.50;99.90
9564;DHT22;4820;50.870;4.702;2023-12-20T10:31:31;7.50;99.90
9564;DHT22;4820;50.870;4.702;2023-12-20T10:33:59;7.50;99.90
9564;DHT22;4820;50.870;4.702;2023-12-20T10:36:26;7.50;99.90
9564;DHT22;4820;50.870;4.702;2023-12-20T10:38:54;7.50;99.90
9564;DHT22;4820;50.870;4.702;2023-12-20T10:41:28;7.60;99.90
9564;DHT22;4820;50.870;4.702;2023-12-20T10:44:02;7.60;99.90
9564;DHT22;4820;50.870;4.702;2023-12-20T10:46:28;7.70;99.90
9564;DHT22;4820;50.870;4.702;2023-12-20T10:48:56;7.70;99.90
9564;DHT22;4820;50.870;4.702;2023-12-20T10:51:23;7.70;99.90
9564;DHT22;4820;50.870;4.702;2023-12-20T10:53:51;7.70;99.90
9564;DHT22;4820;50.870;4.702;2023-12-20T10:56:18;7.80;99.90
9564;DHT22;4820;50.870;4.702;2023-12-20T10:58:45;7.80;99.90
9564;DHT22;4820;50.870;4.702;2023-12-20T11:01:14;7.90;99.90
9564;DHT22;4820;50.870;4.702;2023-12-20T11:03:51;7.90;99.90
9564;DHT22;4820;50.870;4.702;2023-12-20T11:06:37;7.90;99.90
9564;DHT22;4820;50.870;4.702;2023-12-20T11:09:24;8.00;99.90
9564;DHT22;4820;50.870;4.702;2023-12-20T11:17:10;8.10;99.90
9564;DHT22;4820;50.870;4.702;2023-12-20T11:20:06;8.10;99.90
9564;DHT22;4820;50.870;4.702;2023-12-20T11:22:33;8.10;99.90
9564;DHT22;4820;50.870;4.702;2023-12-20T11:25:07;8.10;99.90
9564;DHT22;4820;50.870;4.702;2023-12-20T11:27:34;8.10;99.90
9564;DHT22;4820;50.870;4.702;2023-12-20T11:30:03;8.10;99.90
9564;DHT22;4820;50.870;4.702;2023-12-20T11:32:32;8.20;99.90
9564;DHT22;4820;50.870;4.702;2023-12-20T11:35:19;8.20;99.90
9564;DHT22;4820;50.870;4.702;2023-12-20T11:37:47;8.10;99.90
9564;DHT22;4820;50.870;4.702;2023-12-20T11:40:15;8.20;99.90
9564;DHT22;4820;50.870;4.702;2023-12-20T11:42:45;8.20;99.90
9564;DHT22;4820;50.870;4.702;2023-12-20T11:45:15;8.20;99.90
9564;DHT22;4820;50.870;4.702;2023-12-20T11:47:47;8.20;99.90
9564;DHT22;4820;50.870;4.702;2023-12-20T11:50:17;8.20;99.90
9564;DHT22;4820;50.870;4.702;2023-12-20T11:52:42;8.20;99.90
9564;DHT22;4820;50.870;4.702;2023-12-20T11:55:08;8.20;99.90
9564;DHT22;4820;50.870;4.702;2023-12-20T11:57:34;8.20;99.90
9564;DHT22;4820;50.870;4.702;2023-12-20T12:00:02;8.20;99.90
9564;DHT22;4820;50.870;4.702;2023-12-20T12:02:30;8.20;99.90
9564;DHT22;4820;50.870;4.702;2023-12-20T12:04:55;8.20;99.90
9564;DHT22;4820;50.870;4.702;2023-12-20T12:07:22;8.20;99.90
9564;DHT22;4820;50.870;4.702;2023-12-20T12:09:48;8.20;99.90
9564;DHT22;4820;50.870;4.702;2023-12-20T12:12:14;8.20;99.90
9564;DHT22;4820;50.870;4.702;2023-12-20T12:14:41;8.20;99.90
9564;DHT22;4820;50.870;4.702;2023-12-20T12:17:14;8.20;99.90
9564;DHT22;4820;50.870;4.702;2023-12-20T12:19:41;8.20;99.90
9564;DHT22;4820;50.870;4.702;2023-12-20T12:22:12;8.20;99.90
9564;DHT22;4820;50.870;4.702;2023-12-20T12:24:40;8.20;99.90
9564;DHT22;4820;50.870;4.702;2023-12-20T12:27:06;8.20;99.90
9564;DHT22;4820;50.870;4.702;2023-12-20T12:29:33;8.20;99.90
9564;DHT22;4820;50.870;4.702;2023-12-20T12:31:59;8.20;99.90
9564;DHT22;4820;50.870;4.702;2023-12-20T12:34:27;8.20;99.90
9564;DHT22;4820;50.870;4.702;2023-12-20T12:36:54;8.30;99.90
9564;DHT22;4820;50.870;4.702;2023-12-20T12:39:23;8.30;99.90
9564;DHT22;4820;50.870;4.702;2023-12-20T12:41:54;8.30;99.90
9564;DHT22;4820;50.870;4.702;2023-12-20T12:44:20;8.30;99.90
9564;DHT22;4820;50.870;4.702;2023-12-20T12:46:48;8.30;99.90
9564;DHT22;4820;50.870;4.702;2023-12-20T12:49:16;8.30;99.90
9564;DHT22;4820;50.870;4.702;2023-12-20T12:51:43;8.30;99.90
9564;DHT22;4820;50.870;4.702;2023-12-20T12:54:10;8.30;99.90
9564;DHT22;4820;50.870;4.702;2023-12-20T12:56:36;8.40;99.90
9564;DHT22;4820;50.870;4.702;2023-12-20T12:59:02;8.40;99.90
9564;DHT22;4820;50.870;4.702;2023-12-20T13:01:28;8.40;99.90
9564;DHT22;4820;50.870;4.702;2023-12-20T13:03:54;8.40;99.90
9564;DHT22;4820;50.870;4.702;2023-12-20T13:06:20;8.50;99.90
9564;DHT22;4820;50.870;4.702;2023-12-20T13:08:46;8.50;99.90
9564;DHT22;4820;50.870;4.702;2023-12-20T13:11:12;8.50;99.90
9564;DHT22;4820;50.870;4.702;2023-12-20T13:13:38;8.40;99.90
9564;DHT22;4820;50.870;4.702;2023-12-20T13:16:04;8.40;99.90
9564;DHT22;4820;50.870;4.702;2023-12-20T13:18:30;8.40;99.90
9564;DHT22;4820;50.870;4.702;2023-12-20T13:20:55;8.40;99.90
9564;DHT22;4820;50.870;4.702;2023-12-20T13:23:22;8.30;99.90
9564;DHT22;4820;50.870;4.702;2023-12-20T13:25:48;8.40;99.90
9564;DHT22;4820;50.870;4.702;2023-12-20T13:28:13;8.40;99.90
9564;DHT22;4820;50.870;4.702;2023-12-20T13:30:40;8.50;99.90
9564;DHT22;4820;50.870;4.702;2023-12-20T13:33:06;8.40;99.90
9564;DHT22;4820;50.870;4.702;2023-12-20T13:35:32;8.40;99.90
9564;DHT22;4820;50.870;4.702;2023-12-20T13:38:00;8.40;99.90
9564;DHT22;4820;50.870;4.702;2023-12-20T13:40:26;8.40;99.90
9564;DHT22;4820;50.870;4.702;2023-12-20T13:42:52;8.50;99.90
9564;DHT22;4820;50.870;4.702;2023-12-20T13:45:17;8.50;99.90
9564;DHT22;4820;50.870;4.702;2023-12-20T13:47:43;8.50;99.90
9564;DHT22;4820;50.870;4.702;2023-12-20T13:50:09;8.50;99.90
9564;DHT22;4820;50.870;4.702;2023-12-20T13:52:35;8.40;99.90
9564;DHT22;4820;50.870;4.702;2023-12-20T13:55:02;8.40;99.90
9564;DHT22;4820;50.870;4.702;2023-12-20T13:57:27;8.50;99.90
9564;DHT22;4820;50.870;4.702;2023-12-20T13:59:56;8.50;99.90
9564;DHT22;4820;50.870;4.702;2023-12-20T14:02:24;8.50;99.90
9564;DHT22;4820;50.870;4.702;2023-12-20T14:04:52;8.50;99.90
9564;DHT22;4820;50.870;4.702;2023-12-20T14:07:18;8.50;99.90
9564;DHT22;4820;50.870;4.702;2023-12-20T14:09:43;8.50;99.90
9564;DHT22;4820;50.870;4.702;2023-12-20T14:12:11;8.50;99.90
9564;DHT22;4820;50.870;4.702;2023-12-20T14:14:37;8.50;99.90
9564;DHT22;4820;50.870;4.702;2023-12-20T14:17:03;8.50;99.90
9564;DHT22;4820;50.870;4.702;2023-12-20T14:19:29;8.50;99.90
9564;DHT22;4820;50.870;4.702;2023-12-20T14:21:55;8.60;99.90
9564;DHT22;4820;50.870;4.702;2023-12-20T14:24:22;8.60;99.90
9564;DHT22;4820;50.870;4.702;2023-12-20T14:26:47;8.60;99.90
9564;DHT22;4820;50.870;4.702;2023-12-20T14:29:13;8.70;99.90
9564;DHT22;4820;50.870;4.702;2023-12-20T14:31:39;8.80;99.90
9564;DHT22;4820;50.870;4.702;2023-12-20T14:34:06;8.80;99.90
9564;DHT22;4820;50.870;4.702;2023-12-20T14:36:32;8.90;99.90
9564;DHT22;4820;50.870;4.702;2023-12-20T14:38:58;8.90;99.90
9564;DHT22;4820;50.870;4.702;2023-12-20T14:41:23;8.90;99.90
9564;DHT22;4820;50.870;4.702;2023-12-20T14:43:50;8.90;99.90
9564;DHT22;4820;50.870;4.702;2023-12-20T14:46:17;8.90;99.90
9564;DHT22;4820;50.870;4.702;2023-12-20T14:48:44;9.00;99.90
9564;DHT22;4820;50.870;4.702;2023-12-20T14:51:09;9.00;99.90
9564;DHT22;4820;50.870;4.702;2023-12-20T14:53:37;9.00;99.90
9564;DHT22;4820;50.870;4.702;2023-12-20T14:56:07;9.00;99.90
9564;DHT22;4820;50.870;4.702;2023-12-20T14:58:33;9.00;99.90
9564;DHT22;4820;50.870;4.702;2023-12-20T15:00:59;9.00;99.90
9564;DHT22;4820;50.870;4.702;2023-12-20T15:03:24;9.00;99.90
9564;DHT22;4820;50.870;4.702;2023-12-20T15:05:50;8.90;99.90
9564;DHT22;4820;50.870;4.702;2023-12-20T15:08:17;9.00;99.90
9564;DHT22;4820;50.870;4.702;2023-12-20T15:10:43;9.00;99.90
9564;DHT22;4820;50.870;4.702;2023-12-20T15:13:09;9.00;99.90
9564;DHT22;4820;50.870;4.702;2023-12-20T15:15:34;9.00;99.90
9564;DHT22;4820;50.870;4.702;2023-12-20T15:18:00;9.00;99.90
9564;DHT22;4820;50.870;4.702;2023-12-20T15:20:28;9.00;99.90
9564;DHT22;4820;50.870;4.702;2023-12-20T15:22:53;9.00;99.90
9564;DHT22;4820;50.870;4.702;2023-12-20T15:25:20;9.00;99.90
9564;DHT22;4820;50.870;4.702;2023-12-20T15:27:48;9.00;99.90
9564;DHT22;4820;50.870;4.702;2023-12-20T15:30:21;9.00;99.90
9564;DHT22;4820;50.870;4.702;2023-12-20T15:32:49;9.00;99.90
9564;DHT22;4820;50.870;4.702;2023-12-20T15:35:15;9.00;99.90
9564;DHT22;4820;50.870;4.702;2023-12-20T15:37:41;9.00;99.90
9564;DHT22;4820;50.870;4.702;2023-12-20T15:40:11;9.00;99.90
9564;DHT22;4820;50.870;4.702;2023-12-20T15:42:38;9.10;99.90
9564;DHT22;4820;50.870;4.702;2023-12-20T15:45:05;9.10;99.90
9564;DHT22;4820;50.870;4.702;2023-12-20T15:47:31;9.10;99.90
9564;DHT22;4820;50.870;4.702;2023-12-20T15:49:57;9.20;99.90
9564;DHT22;4820;50.870;4.702;2023-12-20T15:52:24;9.20;99.90
9564;DHT22;4820;50.870;4.702;2023-12-20T15:54:49;9.20;99.90
9564;DHT22;4820;50.870;4.702;2023-12-20T15:57:15;9.20;99.90
9564;DHT22;4820;50.870;4.702;2023-12-20T15:59:44;9.30;99.90
9564;DHT22;4820;50.870;4.702;2023-12-20T16:02:09;9.30;99.90
9564;DHT22;4820;50.870;4.702;2023-12-20T16:04:35;9.30;99.90
9564;DHT22;4820;50.870;4.702;2023-12-20T16:07:01;9.40;99.90
9564;DHT22;4820;50.870;4.702;2023-12-20T16:09:27;9.40;99.90
9564;DHT22;4820;50.870;4.702;2023-12-20T16:11:53;9.40;99.90
9564;DHT22;4820;50.870;4.702;2023-12-20T16:14:18;9.40;99.90
9564;DHT22;4820;50.870;4.702;2023-12-20T16:16:48;9.40;99.90
9564;DHT22;4820;50.870;4.702;2023-12-20T16:19:14;9.40;99.90